Time;durP1;ratioP1;P1;durP2;ratioP2;P2;SDS_P1;SDS_P2;PMS_P1;PMS_P2;Temp;Humidity;BMP_temperature;BMP_pressure;BME280_temperature;BME280_humidity;BME280_pressure;Samples;Min_cycle;Max_cycle;Signal;HPM_P1;HPM_P2
2022/07/11 00:01:21;;;;;;;0.77;0.70;;;;;;;30.85;32.69;101852.41;4985357;28;20046;-74
2022/07/11 00:03:50;;;;;;;2.10;0.90;;;;;;;30.80;32.79;101854.38;4985765;28;20050;-75
2022/07/11 00:06:18;;;;;;;1.00;0.80;;;;;;;30.81;33.12;101859.66;4989390;28;20480;-74
2022/07/11 00:08:47;;;;;;;2.20;1.20;;;;;;;30.81;33.35;101845.41;5004044;28;20045;-72
2022/07/11 00:11:15;;;;;;;1.00;0.90;;;;;;;30.69;33.86;101842.31;4986736;28;20046;-72
2022/07/11 00:13:44;;;;;;;1.00;0.90;;;;;;;30.60;32.54;101839.94;4992255;28;20485;-72
2022/07/11 00:16:12;;;;;;;0.88;0.80;;;;;;;30.61;34.34;101836.34;4998950;28;20113;-74
2022/07/11 00:18:43;;;;;;;1.00;0.90;;;;;;;30.60;35.25;101831.94;4994052;28;20145;-73
2022/07/11 00:21:11;;;;;;;1.10;0.90;;;;;;;30.37;32.72;101835.44;4987660;28;20050;-72
2022/07/11 00:23:40;;;;;;;1.35;1.17;;;;;;;30.33;33.58;101832.94;4988418;28;20050;-71
2022/07/11 00:26:09;;;;;;;3.13;0.85;;;;;;;30.30;34.11;101825.06;4993307;28;20046;-72
2022/07/11 00:28:37;;;;;;;3.75;1.10;;;;;;;30.22;34.96;101817.31;4996176;28;20527;-74
2022/07/11 00:31:07;;;;;;;1.90;0.80;;;;;;;30.18;34.54;101811.19;4989599;28;20046;-72
2022/07/11 00:33:37;;;;;;;1.10;1.00;;;;;;;30.18;34.22;101816.53;4997319;28;20050;-72
2022/07/11 00:36:08;;;;;;;2.90;0.80;;;;;;;30.19;34.82;101812.97;4983309;28;20177;-72
2022/07/11 00:38:36;;;;;;;1.03;0.90;;;;;;;30.20;34.18;101820.03;4991293;28;20054;-71
2022/07/11 00:41:05;;;;;;;1.13;1.00;;;;;;;30.23;35.32;101813.69;4983747;28;20359;-73
2022/07/11 00:43:35;;;;;;;1.15;0.93;;;;;;;30.27;35.64;101815.38;4978593;28;20051;-73
2022/07/11 00:46:04;;;;;;;1.13;0.90;;;;;;;30.23;34.00;101806.56;4981607;28;20574;-73
2022/07/11 00:48:33;;;;;;;1.13;0.80;;;;;;;30.21;33.84;101805.72;4976451;28;20054;-74
2022/07/11 00:51:04;;;;;;;1.13;0.80;;;;;;;30.13;33.65;101799.81;4988921;28;20125;-73
2022/07/11 00:53:36;;;;;;;1.83;1.00;;;;;;;30.01;33.73;101794.94;4985068;28;20626;-74
2022/07/11 00:56:05;;;;;;;1.02;0.75;;;;;;;29.94;33.70;101790.72;4985045;28;20074;-72
2022/07/11 00:58:34;;;;;;;1.05;0.70;;;;;;;29.82;34.14;101786.69;4989166;28;20058;-72
2022/07/11 01:01:03;;;;;;;1.00;0.80;;;;;;;29.74;35.00;101784.28;4987551;28;20555;-72
2022/07/11 01:03:31;;;;;;;1.25;1.15;;;;;;;29.73;35.35;101777.19;4982618;28;20708;-72
2022/07/11 01:06:00;;;;;;;2.17;1.10;;;;;;;29.72;35.20;101780.78;4982291;28;20046;-71
2022/07/11 01:08:31;;;;;;;1.40;1.02;;;;;;;29.65;34.98;101777.44;4988321;28;20104;-74
2022/07/11 01:11:04;;;;;;;0.90;0.68;;;;;;;29.60;35.04;101775.88;4982759;28;20125;-73
2022/07/11 01:13:32;;;;;;;1.20;0.80;;;;;;;29.57;34.68;101776.84;4981749;28;20038;-73
2022/07/11 01:16:12;;;;;;;0.80;0.80;;;;;;;29.58;35.47;101767.91;4988117;28;20046;-75
2022/07/11 01:18:42;;;;;;;2.15;0.70;;;;;;;29.47;34.97;101769.19;4985250;28;20047;-75
2022/07/11 01:21:23;;;;;;;1.30;0.90;;;;;;;29.38;35.34;101767.69;4988925;28;20043;-73
2022/07/11 01:23:55;;;;;;;0.90;0.75;;;;;;;29.37;34.48;101769.50;4985589;28;20046;-74
2022/07/11 01:26:23;;;;;;;;;;;;;;;29.36;34.95;101772.22;4972635;28;20081;-72
2022/07/11 01:28:52;;;;;;;1.35;0.60;;;;;;;29.37;36.04;101773.97;4980339;28;19986;-74
2022/07/11 01:31:21;;;;;;;2.17;1.17;;;;;;;29.36;37.15;101767.75;4979462;28;20042;-72
2022/07/11 01:33:51;;;;;;;1.13;0.80;;;;;;;29.30;35.83;101770.63;4986224;28;20050;-75
2022/07/11 01:36:19;;;;;;;1.10;0.90;;;;;;;29.27;35.36;101768.03;4967216;28;20142;-72
2022/07/11 01:38:48;;;;;;;0.80;0.70;;;;;;;29.24;35.17;101768.16;4965176;28;20086;-74
2022/07/11 01:41:18;;;;;;;0.70;0.70;;;;;;;29.19;36.35;101759.44;4965066;28;20118;-72
2022/07/11 01:43:46;;;;;;;0.80;0.70;;;;;;;29.10;36.75;101757.06;4967914;28;20549;-72
2022/07/11 01:46:15;;;;;;;1.05;0.63;;;;;;;29.01;35.78;101756.41;4969777;28;20054;-72
2022/07/11 01:48:43;;;;;;;0.77;0.70;;;;;;;28.94;35.71;101760.19;4972173;28;20090;-73
2022/07/11 01:51:12;;;;;;;2.05;0.73;;;;;;;28.91;35.78;101748.75;4968095;28;20043;-73
2022/07/11 01:53:40;;;;;;;2.40;0.80;;;;;;;28.90;36.16;101750.53;4964805;28;20473;-74
2022/07/11 01:56:09;;;;;;;0.63;0.60;;;;;;;28.88;35.76;101748.84;4974018;28;20099;-74
2022/07/11 01:58:39;;;;;;;0.85;0.68;;;;;;;28.80;35.74;101749.09;4963727;28;20055;-72
2022/07/11 02:01:08;;;;;;;1.52;0.80;;;;;;;28.76;36.65;101752.78;4965030;28;20086;-72
2022/07/11 02:03:38;;;;;;;0.75;0.73;;;;;;;28.73;37.30;101752.88;4961009;28;20043;-72
2022/07/11 02:06:07;;;;;;;1.50;0.65;;;;;;;28.66;36.03;101753.97;4969167;28;20043;-72
2022/07/11 02:08:36;;;;;;;0.70;0.60;;;;;;;28.63;36.36;101748.72;4958742;28;20047;-73
2022/07/11 02:11:05;;;;;;;1.63;0.70;;;;;;;28.63;36.61;101749.59;4964701;28;20069;-73
2022/07/11 02:13:34;;;;;;;0.95;0.70;;;;;;;28.57;37.16;101745.34;4962143;28;20058;-72
2022/07/11 02:16:04;;;;;;;1.02;0.70;;;;;;;28.52;36.28;101744.63;4969899;28;20050;-73
2022/07/11 02:18:33;;;;;;;1.80;0.80;;;;;;;28.50;36.54;101746.44;4971818;28;20105;-72
2022/07/11 02:21:02;;;;;;;1.85;0.70;;;;;;;28.48;36.40;101740.28;4972222;28;20047;-72
2022/07/11 02:23:30;;;;;;;2.05;0.60;;;;;;;28.43;36.80;101739.53;4971882;28;20046;-74
2022/07/11 02:25:59;;;;;;;0.98;0.70;;;;;;;28.36;36.62;101730.00;4967852;28;20039;-72
2022/07/11 02:28:28;;;;;;;0.73;0.60;;;;;;;28.35;37.54;101736.22;4967317;28;20047;-72
2022/07/11 02:30:56;;;;;;;1.15;0.60;;;;;;;28.31;36.82;101737.22;4975793;28;20488;-72
2022/07/11 02:33:26;;;;;;;1.13;0.60;;;;;;;28.29;36.67;101736.38;4958666;28;20099;-73
2022/07/11 02:35:55;;;;;;;1.23;0.68;;;;;;;28.27;36.33;101746.22;4976695;28;20050;-72
2022/07/11 02:38:30;;;;;;;0.60;0.50;;;;;;;28.18;37.19;101732.25;4980354;28;20125;-73
2022/07/11 02:40:58;;;;;;;0.98;0.60;;;;;;;28.13;36.91;101738.59;4983843;28;20115;-73
2022/07/11 02:43:27;;;;;;;0.70;0.60;;;;;;;28.10;37.78;101736.91;4979904;28;20097;-73
2022/07/11 02:45:56;;;;;;;1.00;0.80;;;;;;;28.02;37.87;101736.25;4985347;28;20089;-72
2022/07/11 02:48:26;;;;;;;0.70;0.55;;;;;;;27.98;38.36;101738.13;4970700;28;20058;-73
2022/07/11 02:50:55;;;;;;;0.98;0.80;;;;;;;27.93;37.19;101739.19;4986809;28;20069;-74
2022/07/11 02:53:23;;;;;;;1.08;0.80;;;;;;;27.89;37.51;101735.72;4977576;28;20054;-71
2022/07/11 02:55:52;;;;;;;0.73;0.65;;;;;;;27.84;37.70;101744.75;4978186;28;20046;-72
2022/07/11 02:58:21;;;;;;;1.02;0.57;;;;;;;27.76;37.79;101745.81;4980784;28;20054;-73
2022/07/11 03:00:49;;;;;;;1.77;0.70;;;;;;;27.70;37.49;101740.63;4985472;28;20051;-75
2022/07/11 03:03:18;;;;;;;0.70;0.70;;;;;;;27.61;37.50;101730.25;4983556;28;20078;-73
2022/07/11 03:05:48;;;;;;;6.85;0.90;;;;;;;27.53;37.72;101732.22;4983401;28;20215;-72
2022/07/11 03:08:16;;;;;;;0.93;0.80;;;;;;;27.45;38.46;101740.41;4992591;28;20045;-73
2022/07/11 03:10:45;;;;;;;1.38;0.93;;;;;;;27.39;38.56;101729.91;4995687;28;20049;-73
2022/07/11 03:13:13;;;;;;;0.90;0.80;;;;;;;27.33;39.27;101730.09;4997924;28;20057;-73
2022/07/11 03:15:42;;;;;;;1.00;0.65;;;;;;;27.26;38.98;101737.31;4990879;28;20472;-73
2022/07/11 03:18:10;;;;;;;0.95;0.75;;;;;;;27.17;39.47;101737.53;4993091;28;20474;-72
2022/07/11 03:20:39;;;;;;;2.00;0.98;;;;;;;27.09;40.22;101737.69;4989723;28;20100;-73
2022/07/11 03:23:09;;;;;;;1.15;0.80;;;;;;;27.00;39.84;101742.34;4984745;28;20050;-73
2022/07/11 03:25:37;;;;;;;0.77;0.77;;;;;;;26.95;40.04;101745.97;4987059;28;20051;-73
2022/07/11 03:28:06;;;;;;;1.23;1.13;;;;;;;26.85;40.63;101741.81;4991924;28;20477;-73
2022/07/11 03:30:34;;;;;;;1.48;0.88;;;;;;;26.75;41.10;101748.22;4986314;28;20068;-73
2022/07/11 03:33:03;;;;;;;0.88;0.80;;;;;;;26.68;41.42;101751.91;4980497;28;20039;-73
2022/07/11 03:35:44;;;;;;;0.80;0.73;;;;;;;26.61;41.38;101752.94;4982799;28;20058;-72
2022/07/11 03:38:15;;;;;;;1.63;1.17;;;;;;;26.52;41.83;101751.34;4978753;28;20058;-73
2022/07/11 03:40:44;;;;;;;1.02;0.90;;;;;;;26.40;41.45;101741.84;4987683;28;20046;-72
2022/07/11 03:43:12;;;;;;;1.10;0.90;;;;;;;26.32;41.94;101746.47;4999475;28;20042;-73
2022/07/11 03:45:41;;;;;;;0.93;0.93;;;;;;;26.20;41.96;101746.69;4990593;28;20053;-73
2022/07/11 03:48:10;;;;;;;1.67;1.00;;;;;;;26.06;42.00;101741.66;4989841;28;20467;-72
2022/07/11 03:50:39;;;;;;;1.08;0.90;;;;;;;25.92;41.93;101736.63;4980501;28;20054;-73
2022/07/11 03:53:07;;;;;;;1.25;0.75;;;;;;;25.83;43.29;101742.06;4986464;28;20077;-73
2022/07/11 03:55:37;;;;;;;0.98;0.80;;;;;;;25.71;43.18;101738.72;4987366;28;20050;-74
2022/07/11 03:58:06;;;;;;;1.38;1.10;;;;;;;25.59;43.78;101736.31;4986178;28;20042;-74
2022/07/11 04:00:35;;;;;;;1.08;0.80;;;;;;;25.50;43.92;101741.75;4986332;28;20050;-72
2022/07/11 04:03:03;;;;;;;2.53;0.95;;;;;;;25.41;44.88;101742.78;4988436;28;20046;-74
2022/07/11 04:05:32;;;;;;;1.00;0.90;;;;;;;25.29;44.32;101741.22;4986781;28;20559;-71
2022/07/11 04:08:00;;;;;;;1.23;0.82;;;;;;;25.14;45.09;101743.19;4987360;28;20488;-73
2022/07/11 04:10:28;;;;;;;1.40;1.00;;;;;;;25.05;44.70;101745.06;4988136;28;20043;-74
2022/07/11 04:12:59;;;;;;;1.10;0.80;;;;;;;24.97;44.02;101743.44;4987069;28;20042;-71
2022/07/11 04:15:27;;;;;;;0.85;0.80;;;;;;;24.85;44.79;101739.19;4993064;28;20101;-72
2022/07/11 04:17:56;;;;;;;1.17;0.80;;;;;;;24.77;44.77;101741.97;4996861;28;20042;-74
2022/07/11 04:20:24;;;;;;;1.42;0.90;;;;;;;24.69;44.97;101741.16;4981053;28;20497;-72
2022/07/11 04:22:53;;;;;;;1.13;0.90;;;;;;;24.57;47.57;101744.00;4989370;28;20101;-73
2022/07/11 04:25:21;;;;;;;1.33;0.80;;;;;;;24.43;47.20;101749.44;4990669;28;20061;-74
2022/07/11 04:27:50;;;;;;;2.13;0.93;;;;;;;24.35;47.41;101746.88;4977842;28;20049;-74
2022/07/11 04:30:20;;;;;;;1.33;1.00;;;;;;;24.28;47.10;101739.03;4990876;28;20106;-74
2022/07/11 04:32:49;;;;;;;0.80;0.80;;;;;;;24.22;46.67;101748.78;4992562;28;20046;-72
2022/07/11 04:35:18;;;;;;;1.08;0.88;;;;;;;24.16;46.61;101750.63;4983442;28;20658;-73
2022/07/11 04:37:46;;;;;;;1.70;0.70;;;;;;;24.11;46.89;101758.59;4969407;28;20138;-72
2022/07/11 04:40:17;;;;;;;2.58;0.63;;;;;;;23.92;47.60;101742.06;4968913;28;20051;-73
2022/07/11 04:42:45;;;;;;;0.80;0.80;;;;;;;23.97;47.05;101758.75;4968398;28;20505;-72
2022/07/11 04:45:14;;;;;;;1.45;0.95;;;;;;;23.91;46.46;101756.16;4969036;28;20054;-73
2022/07/11 04:47:44;;;;;;;1.30;0.90;;;;;;;23.83;47.58;101755.38;4966097;28;20485;-72
2022/07/11 04:50:13;;;;;;;1.00;0.80;;;;;;;23.75;47.16;101759.84;4969361;28;20047;-74
2022/07/11 04:52:43;;;;;;;0.90;0.80;;;;;;;23.72;50.23;101762.50;4965961;28;20504;-74
2022/07/11 04:55:11;;;;;;;1.20;0.75;;;;;;;23.65;48.35;101763.44;4972165;28;20560;-73
2022/07/11 04:57:40;;;;;;;1.05;0.80;;;;;;;23.59;48.05;101756.44;4966879;28;20500;-74
2022/07/11 05:00:09;;;;;;;0.90;0.80;;;;;;;23.54;48.96;101753.81;4969954;28;20497;-73
2022/07/11 05:02:38;;;;;;;2.42;1.15;;;;;;;23.51;48.14;101759.16;4967609;28;20134;-74
2022/07/11 05:05:09;;;;;;;1.00;0.80;;;;;;;23.48;47.73;101760.91;4969880;28;20098;-73
2022/07/11 05:07:38;;;;;;;0.95;0.75;;;;;;;23.42;48.36;101754.81;4970983;28;20058;-72
2022/07/11 05:10:07;;;;;;;1.05;0.85;;;;;;;23.35;49.02;101762.81;4968300;28;20038;-74
2022/07/11 05:12:36;;;;;;;1.75;0.90;;;;;;;23.29;48.97;101765.47;4969175;28;20436;-73
2022/07/11 05:15:05;;;;;;;1.33;1.00;;;;;;;23.24;50.49;101764.63;4964000;28;20054;-73
2022/07/11 05:17:33;;;;;;;2.20;1.00;;;;;;;23.20;49.49;101766.41;4970490;28;20046;-72
2022/07/11 05:20:02;;;;;;;1.85;0.90;;;;;;;23.16;49.17;101765.56;4962562;28;20047;-73
2022/07/11 05:22:32;;;;;;;1.10;0.93;;;;;;;23.12;49.54;101766.47;4961805;28;20050;-74
2022/07/11 05:25:01;;;;;;;1.33;0.93;;;;;;;23.10;50.22;101776.16;4970562;28;20054;-73
2022/07/11 05:27:29;;;;;;;1.23;1.00;;;;;;;23.04;48.83;101770.03;4959231;28;20051;-74
2022/07/11 05:29:58;;;;;;;1.13;0.95;;;;;;;23.02;49.21;101764.78;4960896;28;20103;-73
2022/07/11 05:32:26;;;;;;;2.25;0.90;;;;;;;23.00;52.99;101769.19;4974363;28;20042;-74
2022/07/11 05:34:56;;;;;;;0.70;0.70;;;;;;;22.96;50.23;101770.06;4970532;28;20106;-74
2022/07/11 05:37:25;;;;;;;1.13;1.02;;;;;;;22.93;50.74;101763.03;4970523;28;20049;-73
2022/07/11 05:39:55;;;;;;;2.00;0.93;;;;;;;22.89;49.74;101757.78;4965781;28;20497;-74
2022/07/11 05:42:24;;;;;;;1.60;0.90;;;;;;;22.86;50.70;101770.97;4968823;28;20050;-73
2022/07/11 05:44:52;;;;;;;2.30;1.00;;;;;;;22.82;51.84;101772.78;4965173;28;20050;-71
2022/07/11 05:47:21;;;;;;;1.08;0.88;;;;;;;22.75;53.09;101766.66;4964319;28;20051;-73
2022/07/11 05:49:56;;;;;;;2.05;1.63;;;;;;;22.69;52.12;101763.16;4971573;28;20103;-74
2022/07/11 05:52:25;;;;;;;1.20;0.93;;;;;;;22.63;51.58;101761.44;4967731;28;20543;-72
2022/07/11 05:54:55;;;;;;;1.05;0.90;;;;;;;22.58;51.37;101760.56;4968765;28;20078;-73
2022/07/11 05:57:23;;;;;;;1.08;0.98;;;;;;;22.54;52.11;101754.44;4958806;28;20050;-73
2022/07/11 05:59:52;;;;;;;0.80;0.80;;;;;;;22.53;52.64;101757.06;4974543;28;20047;-74
2022/07/11 06:02:20;;;;;;;1.00;0.90;;;;;;;22.49;54.28;101750.91;4966615;28;20051;-73
2022/07/11 06:04:49;;;;;;;1.10;1.00;;;;;;;22.45;53.44;101748.31;4964425;28;20054;-74
2022/07/11 06:08:40;;;;;;;2.05;0.90;;;;;;;22.38;52.76;101748.34;4969865;28;20080;-73
2022/07/11 06:10:11;;;;;;;1.20;1.10;;;;;;;22.31;52.62;101751.91;4972639;28;20051;-73
2022/07/11 06:12:41;;;;;;;3.35;1.02;;;;;;;22.28;52.77;101745.75;4962894;28;20130;-73
2022/07/11 06:15:10;;;;;;;2.60;0.98;;;;;;;22.22;53.86;101738.75;4984111;28;20046;-75
2022/07/11 06:17:39;;;;;;;1.55;1.00;;;;;;;22.19;53.43;101741.34;4973426;28;20082;-74
2022/07/11 06:20:09;;;;;;;1.50;0.90;;;;;;;22.15;53.96;101739.56;4972147;28;20114;-74
2022/07/11 06:22:37;;;;;;;1.70;1.00;;;;;;;22.11;54.17;101729.94;4961387;28;20046;-73
2022/07/11 06:25:06;;;;;;;1.00;0.90;;;;;;;22.03;54.99;101722.03;4973737;28;20855;-73
2022/07/11 06:27:36;;;;;;;1.17;0.90;;;;;;;21.94;58.23;101720.34;4971846;28;20054;-74
2022/07/11 06:30:05;;;;;;;1.30;1.00;;;;;;;21.83;56.38;101716.84;4971221;28;20131;-72
2022/07/11 06:32:34;;;;;;;1.00;0.80;;;;;;;21.77;55.83;101724.75;4983839;28;20089;-73
2022/07/11 06:35:02;;;;;;;1.75;1.02;;;;;;;21.72;55.64;101724.75;4974209;28;20059;-73
2022/07/11 06:37:31;;;;;;;2.47;1.30;;;;;;;21.66;56.65;101721.25;4971624;28;20106;-72
2022/07/11 06:39:59;;;;;;;1.52;1.20;;;;;;;21.58;56.76;101720.34;4970369;28;20196;-73
2022/07/11 06:42:28;;;;;;;1.75;1.10;;;;;;;21.51;56.79;101720.38;4979611;28;20055;-73
2022/07/11 06:44:58;;;;;;;1.83;1.02;;;;;;;21.48;57.51;101709.81;4972013;28;20099;-73
2022/07/11 06:47:26;;;;;;;3.85;1.27;;;;;;;21.46;59.38;101714.25;4972028;28;20050;-73
2022/07/11 06:49:55;;;;;;;2.33;1.00;;;;;;;21.44;59.11;101712.47;4973341;28;20051;-73
2022/07/11 06:52:23;;;;;;;2.17;1.15;;;;;;;21.41;58.56;101713.34;4983539;28;20090;-73
2022/07/11 06:54:52;;;;;;;1.48;1.15;;;;;;;21.34;58.18;101701.03;4981182;28;20545;-73
2022/07/11 06:57:20;;;;;;;2.20;1.00;;;;;;;21.29;58.76;101705.44;4974300;28;20548;-73
2022/07/11 06:59:49;;;;;;;2.10;1.23;;;;;;;21.25;58.67;101701.03;4966874;28;20046;-73
2022/07/11 07:02:19;;;;;;;1.38;1.00;;;;;;;21.19;58.31;101695.75;4962780;28;20059;-71
2022/07/11 07:04:47;;;;;;;1.05;0.95;;;;;;;21.10;59.82;101697.53;4967441;28;20063;-72
2022/07/11 07:07:16;;;;;;;1.55;1.25;;;;;;;21.01;60.19;101697.50;4965310;28;20050;-72
2022/07/11 07:09:44;;;;;;;2.42;1.10;;;;;;;20.92;60.83;101694.88;4977310;28;20043;-73
2022/07/11 07:12:13;;;;;;;4.47;1.48;;;;;;;20.87;61.40;101697.50;4969099;28;20053;-72
2022/07/11 07:14:41;;;;;;;3.13;1.42;;;;;;;20.76;61.56;101682.56;4964659;28;20118;-72
2022/07/11 07:17:10;;;;;;;3.08;1.30;;;;;;;20.71;61.04;101688.69;4969136;28;20389;-73
2022/07/11 07:19:40;;;;;;;1.83;1.10;;;;;;;20.66;61.88;101681.63;4973330;28;20500;-72
2022/07/11 07:22:08;;;;;;;1.65;1.10;;;;;;;20.51;61.85;101669.31;4965650;28;20310;-72
2022/07/11 07:24:37;;;;;;;1.50;1.15;;;;;;;20.50;61.52;101683.31;4970494;28;20054;-72
2022/07/11 07:27:06;;;;;;;2.08;1.40;;;;;;;20.48;62.78;101680.69;4969287;28;20137;-73
2022/07/11 07:29:35;;;;;;;4.18;1.55;;;;;;;20.47;62.13;101684.19;4970482;28;20496;-73
2022/07/11 07:32:04;;;;;;;1.73;1.10;;;;;;;20.47;62.37;101671.03;4970195;28;20528;-73
2022/07/11 07:34:32;;;;;;;2.97;1.10;;;;;;;20.46;62.05;101671.06;4975339;28;20047;-72
2022/07/11 07:37:02;;;;;;;1.23;1.00;;;;;;;20.45;61.90;101678.03;4985823;28;20104;-73
2022/07/11 07:39:31;;;;;;;3.58;1.10;;;;;;;20.42;61.73;101675.41;4986160;28;20724;-73
2022/07/11 07:41:59;;;;;;;1.58;1.10;;;;;;;20.37;62.33;101681.53;4995343;28;20051;-73
2022/07/11 07:44:28;;;;;;;2.50;1.20;;;;;;;20.33;62.38;101677.13;4988556;28;20105;-73
2022/07/11 07:46:57;;;;;;;1.63;0.98;;;;;;;20.26;63.81;101669.22;4989331;28;20050;-72
2022/07/11 07:49:25;;;;;;;2.95;1.17;;;;;;;20.19;65.23;101675.31;4987994;28;20046;-72
2022/07/11 07:51:53;;;;;;;1.55;1.00;;;;;;;20.11;64.73;101669.13;4978585;28;20121;-72
2022/07/11 07:54:24;;;;;;;1.90;1.23;;;;;;;20.05;64.82;101669.13;4990992;28;20050;-72
2022/07/11 07:56:52;;;;;;;1.65;1.27;;;;;;;20.02;65.53;101658.59;4980368;28;20054;-72
2022/07/11 07:59:24;;;;;;;1.88;1.10;;;;;;;20.01;65.11;101667.34;4985817;28;20043;-71
2022/07/11 08:01:52;;;;;;;1.30;1.20;;;;;;;19.96;65.46;101659.44;4980215;28;20082;-73
2022/07/11 08:04:20;;;;;;;1.67;1.10;;;;;;;19.95;65.33;101662.97;4981546;28;20090;-74
2022/07/11 08:06:49;;;;;;;1.48;1.10;;;;;;;19.95;64.57;101656.81;4990796;28;20042;-73
2022/07/11 08:09:17;;;;;;;1.52;1.02;;;;;;;19.93;64.70;101653.28;4985285;28;20053;-73
2022/07/11 08:11:47;;;;;;;2.50;1.13;;;;;;;19.92;64.56;101648.91;4985976;28;20476;-74
2022/07/11 08:14:16;;;;;;;1.73;1.10;;;;;;;19.88;65.39;101651.53;4990567;28;20065;-72
2022/07/11 08:16:44;;;;;;;2.47;1.20;;;;;;;19.81;66.71;101655.00;4995253;28;20504;-73
2022/07/11 08:19:13;;;;;;;3.05;1.30;;;;;;;19.76;66.90;101651.44;5004621;28;20046;-72
2022/07/11 08:21:42;;;;;;;1.40;1.25;;;;;;;19.68;67.24;101658.38;4994287;28;20050;-72
2022/07/11 08:24:10;;;;;;;2.00;1.35;;;;;;;19.61;67.43;101646.09;4987999;28;20211;-72
2022/07/11 08:26:40;;;;;;;1.63;1.15;;;;;;;19.54;67.99;101646.91;4990913;28;20065;-73
2022/07/11 08:29:10;;;;;;;1.40;1.30;;;;;;;19.51;67.67;101646.88;4986315;28;20042;-72
2022/07/11 08:31:38;;;;;;;1.95;1.25;;;;;;;19.51;67.70;101644.25;4988536;28;20357;-73
2022/07/11 08:34:07;;;;;;;2.78;1.27;;;;;;;19.52;67.26;101646.03;4978545;28;20042;-73
2022/07/11 08:36:36;;;;;;;1.70;1.05;;;;;;;19.52;67.20;101640.78;4988670;28;20132;-73
2022/07/11 08:39:05;;;;;;;1.67;1.17;;;;;;;19.52;67.45;101644.28;4987876;28;20054;-74
2022/07/11 08:41:34;;;;;;;1.15;1.00;;;;;;;19.51;67.32;101642.50;4977878;28;20054;-72
2022/07/11 08:44:03;;;;;;;1.05;0.95;;;;;;;19.49;68.27;101638.13;4975216;28;20061;-73
2022/07/11 08:46:33;;;;;;;1.30;1.17;;;;;;;19.48;68.12;101639.00;4974094;28;20138;-73
2022/07/11 08:49:06;;;;;;;1.40;1.20;;;;;;;19.49;67.64;101635.50;4989575;28;20476;-74
2022/07/11 08:51:37;;;;;;;1.70;1.17;;;;;;;19.48;67.29;101623.25;4977242;28;20520;-75
2022/07/11 08:54:06;;;;;;;1.63;1.20;;;;;;;19.48;67.04;101628.50;4972183;28;20047;-73
2022/07/11 08:56:36;;;;;;;1.85;1.10;;;;;;;19.46;66.46;101624.09;4983149;28;20050;-73
2022/07/11 08:59:06;;;;;;;1.23;1.10;;;;;;;19.44;66.84;101620.59;4989013;28;20112;-72
2022/07/11 09:01:39;;;;;;;2.25;1.10;;;;;;;19.41;66.83;101623.22;4989789;28;20113;-73
2022/07/11 09:04:09;;;;;;;2.15;1.10;;;;;;;19.39;67.07;101624.94;4979782;28;20047;-72
2022/07/11 09:06:37;;;;;;;2.47;1.10;;;;;;;19.36;68.29;101619.69;4988738;28;20055;-72
2022/07/11 09:09:06;;;;;;;1.67;1.08;;;;;;;19.35;69.40;101617.03;4990024;28;20101;-73
2022/07/11 09:11:53;;;;;;;1.55;1.30;;;;;;;19.30;70.29;101619.63;4987847;28;20101;-72
2022/07/11 09:14:26;;;;;;;1.70;1.20;;;;;;;19.24;69.59;101614.31;4988136;28;20050;-73
2022/07/11 09:16:58;;;;;;;1.90;1.10;;;;;;;19.17;69.51;101605.56;4991370;28;20671;-72
2022/07/11 09:19:28;;;;;;;1.13;1.02;;;;;;;19.16;69.45;101603.78;4999609;28;20046;-73
2022/07/11 09:27:45;;;;;;;1.90;1.30;;;;;;;19.12;69.60;101601.13;4988649;28;20088;-73
2022/07/11 09:30:25;;;;;;;2.03;1.30;;;;;;;19.10;69.66;101601.09;4987011;28;20118;-74
2022/07/11 09:32:57;;;;;;;2.28;1.20;;;;;;;19.08;70.54;101601.97;4989995;28;20050;-74
2022/07/11 09:35:50;;;;;;;1.20;1.10;;;;;;;19.04;70.71;101604.56;4990438;28;20110;-73
2022/07/11 09:38:21;;;;;;;2.20;1.35;;;;;;;19.00;70.49;101602.78;4987456;28;20519;-73
2022/07/11 09:40:50;;;;;;;2.13;1.00;;;;;;;18.91;70.51;101591.34;4986746;28;20061;-74
2022/07/11 09:43:26;;;;;;;1.48;1.30;;;;;;;18.94;71.08;101594.84;4988254;28;20126;-74
2022/07/11 09:46:05;;;;;;;2.08;1.25;;;;;;;18.92;70.91;101596.59;4988108;28;20431;-74
2022/07/11 09:48:36;;;;;;;1.73;1.25;;;;;;;18.90;70.82;101587.84;4987846;28;20528;-74
2022/07/11 09:51:04;;;;;;;1.90;1.20;;;;;;;18.88;71.90;101584.31;4979810;28;20920;-74
2022/07/11 09:53:33;;;;;;;2.83;1.30;;;;;;;18.86;71.23;101586.06;4980012;28;20046;-74
2022/07/11 09:56:01;;;;;;;2.80;1.25;;;;;;;18.83;71.53;101586.91;4986913;28;20047;-73
2022/07/11 09:58:31;;;;;;;1.15;1.00;;;;;;;18.81;72.05;101587.78;4980640;28;20047;-74
2022/07/11 10:01:00;;;;;;;1.30;1.10;;;;;;;18.81;71.64;101577.28;4995408;28;20064;-71
2022/07/11 10:03:31;;;;;;;3.15;1.20;;;;;;;18.81;70.93;101577.28;4986380;28;20052;-72
2022/07/11 10:06:01;;;;;;;2.10;1.20;;;;;;;18.80;72.28;101570.25;4992675;28;20050;-72
2022/07/11 10:08:33;;;;;;;1.30;1.20;;;;;;;18.79;71.99;101569.38;4985053;28;20087;-74
2022/07/11 10:11:02;;;;;;;1.73;1.20;;;;;;;18.79;71.72;101571.13;4985713;28;20042;-74
2022/07/11 10:13:31;;;;;;;2.33;1.40;;;;;;;18.79;71.71;101574.63;4985224;28;20065;-73
2022/07/11 10:16:01;;;;;;;1.33;1.20;;;;;;;18.80;71.12;101576.38;4982538;28;20385;-73
2022/07/11 10:18:37;;;;;;;1.98;1.38;;;;;;;18.80;71.33;101571.13;4981295;28;20565;-73
2022/07/11 10:21:14;;;;;;;1.30;1.20;;;;;;;18.77;71.76;101571.13;4992904;28;20046;-74
2022/07/11 10:23:50;;;;;;;1.98;1.40;;;;;;;18.76;71.27;101564.09;4983524;28;20043;-75
2022/07/11 10:26:27;;;;;;;1.40;1.10;;;;;;;18.74;72.37;101572.81;4979190;28;20547;-73
2022/07/11 10:28:58;;;;;;;1.60;1.50;;;;;;;18.70;71.21;101568.41;4993299;28;20178;-73
2022/07/11 10:31:30;;;;;;;3.47;1.25;;;;;;;18.70;70.88;101563.16;4988773;28;20102;-73
2022/07/11 10:34:03;;;;;;;3.30;1.23;;;;;;;18.69;71.75;101558.75;5004504;28;20157;-74
2022/07/11 10:36:35;;;;;;;1.73;1.30;;;;;;;18.66;71.36;101550.88;4980927;28;20137;-73
2022/07/11 10:39:18;;;;;;;2.60;1.25;;;;;;;18.62;71.29;101545.63;4974423;28;20053;-74
2022/07/11 10:41:47;;;;;;;1.40;1.30;;;;;;;18.61;70.72;101541.22;4978033;28;20082;-73
2022/07/11 10:44:15;;;;;;;1.73;1.50;;;;;;;18.64;71.08;101537.75;4983099;28;20061;-72
2022/07/11 10:46:44;;;;;;;1.50;1.20;;;;;;;18.62;71.02;101535.16;4971415;28;20494;-73
2022/07/11 10:49:19;;;;;;;3.55;1.50;;;;;;;18.55;71.83;101527.19;4977553;28;20121;-72
2022/07/11 10:52:00;;;;;;;2.50;1.40;;;;;;;18.57;71.15;101528.97;4964447;28;20138;-73
2022/07/11 10:54:44;;;;;;;3.03;1.65;;;;;;;18.54;70.59;101528.94;4973085;28;20055;-71
2022/07/11 10:57:19;;;;;;;1.77;1.60;;;;;;;18.54;72.05;101528.94;4977868;28;20055;-72
2022/07/11 11:00:02;;;;;;;2.03;1.50;;;;;;;18.50;73.11;101524.53;4979095;28;20133;-72
2022/07/11 11:02:32;;;;;;;2.58;1.35;;;;;;;18.47;72.15;101531.50;4984138;28;20043;-72
2022/07/11 11:05:02;;;;;;;3.22;1.60;;;;;;;18.43;72.67;101525.34;4972290;28;20107;-72
2022/07/11 11:07:37;;;;;;;2.97;1.35;;;;;;;18.40;73.34;101525.31;4979086;28;20048;-73
2022/07/11 11:10:53;;;;;;;2.40;1.48;;;;;;;18.36;72.55;101520.91;4984940;28;20374;-73
2022/07/11 11:13:21;;;;;;;2.15;1.38;;;;;;;18.35;72.32;101519.16;4965145;28;20051;-72
2022/07/11 11:15:51;;;;;;;2.63;1.30;;;;;;;18.33;72.20;101515.66;4982053;28;20616;-71
2022/07/11 11:18:36;;;;;;;2.65;1.30;;;;;;;18.29;72.33;101508.63;4985939;28;20493;-73
2022/07/11 11:21:24;;;;;;;1.92;1.38;;;;;;;18.25;72.54;101509.44;4979662;28;20050;-72
2022/07/11 11:24:11;;;;;;;4.47;1.52;;;;;;;18.18;73.42;101501.50;4974225;28;20043;-72
2022/07/11 11:26:53;;;;;;;1.83;1.30;;;;;;;18.15;72.76;101505.88;4964617;28;20061;-73
2022/07/11 11:29:24;;;;;;;1.80;1.33;;;;;;;18.14;72.52;101499.75;4971828;28;20051;-72
2022/07/11 11:31:54;;;;;;;1.70;1.40;;;;;;;18.15;72.38;101495.38;4974972;28;20140;-73
2022/07/11 11:34:23;;;;;;;2.55;1.70;;;;;;;18.13;72.48;101490.13;4979592;28;20105;-72
2022/07/11 11:36:59;;;;;;;2.38;1.77;;;;;;;18.13;72.68;101486.63;4985295;28;20540;-72
2022/07/11 11:39:32;;;;;;;3.67;1.80;;;;;;;18.11;73.09;101483.97;4976369;28;20054;-73
2022/07/11 11:42:08;;;;;;;1.98;1.55;;;;;;;18.04;74.00;101487.41;4963689;28;20088;-72
2022/07/11 11:44:49;;;;;;;1.67;1.40;;;;;;;17.96;73.81;101481.22;4965259;28;20051;-73